ZBTJ/TSN METAR and TAF weather

Enter ICAO airport designator
Station Type Date Time Source
ZBTJ METAR 2021/10/22 19:30 UTC NOAA

ZBTJ 221930Z 15001MPS CAVOK 05/03 Q1029 NOSIG


Station Type Date Time Source
ZBTJ Decoded METAR 2021/10/22 19:30 UTC NOAA

Tianjin / Zhangguizhu, China (ZBTJ) 39-11N 117-21E
Oct 22, 2021 - 03:30 PM EDT / 2021.10.22 1930 UTC
Wind: from the SSE (150 degrees) at 2 MPH (2 KT):0
Visibility: greater than 7 mile(s):0
Temperature: 41 F (5 C)
Dew Point: 37 F (3 C)
Relative Humidity: 86%
Pressure (altimeter): 30.39 in. Hg (1029 hPa)
ob: ZBTJ 221930Z 15001MPS CAVOK 05/03 Q1029 NOSIG
cycle: 19

Station Type Date Time Source
ZBTJ TAF 2021/10/22 18:09 UTC NOAA

TAF ZBTJ 221506Z 2218/2318 20003MPS 5000 HZ NSC TX18/2306Z TN04/2221Z

Example: see airport list